Time;durP1;ratioP1;P1;durP2;ratioP2;P2;SDS_P1;SDS_P2;PMS_P1;PMS_P2;Temp;Humidity;BMP_temperature;BMP_pressure;BME280_temperature;BME280_humidity;BME280_pressure;Samples;Min_cycle;Max_cycle;Signal;HPM_P1;HPM_P2
2022/08/10 00:02:17;;;;;;;12.68;5.53;;;;;;;19.18;100.00;94959.38;5040444;28;20036;-89
2022/08/10 00:04:43;;;;;;;8.77;5.30;;;;;;;19.16;100.00;94961.56;5039052;28;20530;-89
2022/08/10 00:07:08;;;;;;;9.10;5.53;;;;;;;19.20;100.00;94957.19;5023120;28;20116;-89
2022/08/10 00:09:34;;;;;;;7.72;5.20;;;;;;;18.96;100.00;94955.69;5022798;28;20025;-89
2022/08/10 00:11:59;;;;;;;13.00;6.10;;;;;;;18.98;100.00;94956.16;5038765;28;20025;-89
2022/08/10 00:14:25;;;;;;;11.27;5.50;;;;;;;19.15;100.00;94952.03;5039213;28;20026;-89
2022/08/10 00:16:50;;;;;;;10.63;6.05;;;;;;;19.14;100.00;94947.81;5038808;28;20025;-87
2022/08/10 00:19:16;;;;;;;10.38;5.10;;;;;;;19.18;100.00;94954.06;5038935;28;20021;-87
2022/08/10 00:21:41;;;;;;;10.70;5.88;;;;;;;18.99;100.00;94941.81;5022568;28;20025;-87
2022/08/10 00:24:07;;;;;;;13.00;6.10;;;;;;;18.62;100.00;94947.25;5038755;28;20033;-87
2022/08/10 00:26:32;;;;;;;10.32;5.50;;;;;;;18.31;100.00;94942.69;5038797;28;20423;-87
2022/08/10 00:28:58;;;;;;;9.18;6.15;;;;;;;18.17;100.00;94945.41;5038754;28;20080;-87
2022/08/10 00:31:23;;;;;;;8.52;5.75;;;;;;;18.40;100.00;94945.41;5039295;28;20025;-87
2022/08/10 00:33:49;;;;;;;10.38;6.78;;;;;;;18.03;100.00;94945.47;5038746;28;20030;-87
2022/08/10 00:36:14;;;;;;;12.07;7.05;;;;;;;17.88;100.00;94943.91;5038531;28;20427;-87
2022/08/10 00:38:42;;;;;;;12.95;7.60;;;;;;;17.84;100.00;94942.94;5038488;28;20365;-87
2022/08/10 00:41:07;;;;;;;13.75;6.30;;;;;;;17.78;100.00;94944.13;5022400;28;20036;-87
2022/08/10 00:43:33;;;;;;;12.57;6.28;;;;;;;17.90;100.00;94944.38;5038348;28;20025;-87
2022/08/10 00:45:58;;;;;;;9.32;6.05;;;;;;;17.71;100.00;94944.53;5038558;28;20423;-87
2022/08/10 00:48:24;;;;;;;10.95;6.90;;;;;;;17.67;100.00;94943.56;5022456;28;20052;-87
2022/08/10 00:50:49;;;;;;;12.00;6.22;;;;;;;17.77;100.00;94948.66;5022111;28;20033;-87
2022/08/10 00:53:15;;;;;;;13.27;6.63;;;;;;;18.03;100.00;94944.66;5038128;28;20025;-87
2022/08/10 00:55:40;;;;;;;9.68;6.28;;;;;;;18.12;100.00;94939.44;5022271;28;20026;-87
2022/08/10 00:58:07;;;;;;;9.35;6.20;;;;;;;18.16;100.00;94951.03;5021905;28;20032;-87
2022/08/10 01:00:33;;;;;;;10.23;6.47;;;;;;;17.95;100.00;94954.91;5022163;28;20312;-87
2022/08/10 01:02:58;;;;;;;10.55;6.25;;;;;;;17.88;100.00;94951.84;5021694;28;20438;-87
2022/08/10 01:05:25;;;;;;;12.02;6.47;;;;;;;18.16;100.00;94943.84;5021623;28;20025;-87
2022/08/10 01:08:09;;;;;;;10.50;6.00;;;;;;;17.84;100.00;94945.59;5021003;28;20017;-87
2022/08/10 01:11:05;;;;;;;11.02;6.03;;;;;;;18.06;100.00;94942.22;5038921;28;20033;-87
2022/08/10 01:13:47;;;;;;;12.80;5.55;;;;;;;18.18;100.00;94940.91;5027874;28;20037;-87
2022/08/10 01:16:22;;;;;;;7.47;5.15;;;;;;;18.31;100.00;94940.06;5037936;28;20080;-87
2022/08/10 01:19:05;;;;;;;11.57;6.32;;;;;;;17.95;100.00;94944.28;5038650;28;20439;-87
2022/08/10 01:21:42;;;;;;;13.52;7.25;;;;;;;17.80;100.00;94945.41;5038746;28;20032;-87
2022/08/10 01:24:33;;;;;;;11.57;6.72;;;;;;;17.70;100.00;94942.97;5037565;28;20496;-87
2022/08/10 01:27:26;;;;;;;16.73;7.28;;;;;;;17.91;100.00;94940.66;5038603;28;20115;-87
2022/08/10 01:30:07;;;;;;;10.38;6.05;;;;;;;17.80;100.00;94945.41;5021324;28;20036;-87
2022/08/10 01:32:46;;;;;;;8.90;6.30;;;;;;;17.94;100.00;94942.72;5037826;28;20021;-87
2022/08/10 01:35:17;;;;;;;9.80;6.40;;;;;;;18.18;100.00;94939.00;5037586;28;20080;-88
2022/08/10 01:37:47;;;;;;;13.45;6.00;;;;;;;17.90;100.00;94940.97;5037442;28;20445;-88
2022/08/10 01:40:24;;;;;;;;;;;;;;;;;;;;;
2022/08/10 01:42:50;;;;;;;12.02;7.10;;;;;;;17.55;100.00;94945.94;5034187;28;20022;-89
2022/08/10 01:45:19;;;;;;;11.10;7.10;;;;;;;17.36;100.00;94954.81;5037358;28;20029;-89
2022/08/10 01:50:42;;;;;;;10.20;6.85;;;;;;;17.42;100.00;94943.00;5031344;28;20024;-89
2022/08/10 01:53:13;;;;;;;10.95;6.82;;;;;;;17.62;100.00;94936.50;5017350;28;20052;-90
2022/08/10 01:55:39;;;;;;;13.77;6.55;;;;;;;17.37;100.00;94941.28;5017177;28;20026;-89
2022/08/10 01:58:08;;;;;;;13.27;6.43;;;;;;;17.81;100.00;94936.38;5001073;28;20026;-90
2022/08/10 02:00:48;;;;;;;;;;;;;;;;;;;;;
2022/08/10 02:03:25;;;;;;;;;;;;;;;;;;;;;
2022/08/10 02:05:56;;;;;;;10.48;6.45;;;;;;;18.03;100.00;94926.13;5016979;28;20437;-89
2022/08/10 02:08:28;;;;;;;12.80;7.13;;;;;;;17.87;100.00;94934.38;5001268;28;20088;-90
2022/08/10 02:10:57;;;;;;;13.15;7.25;;;;;;;17.65;100.00;94927.97;5003624;28;20028;-89
2022/08/10 02:13:44;;;;;;;;;;;;;;;;;;;;;
2022/08/10 02:16:10;;;;;;;16.42;6.85;;;;;;;17.25;100.00;94933.03;5017746;28;20358;-89
2022/08/10 02:18:39;;;;;;;10.80;5.88;;;;;;;17.28;100.00;94937.75;5016938;28;20112;-89
2022/08/10 02:21:16;;;;;;;7.53;6.05;;;;;;;17.48;100.00;94933.91;5015937;28;20034;-89
2022/08/10 02:23:42;;;;;;;8.00;5.80;;;;;;;17.62;100.00;94939.16;5016995;28;20022;-89
2022/08/10 02:26:08;;;;;;;9.40;5.72;;;;;;;17.67;100.00;94939.06;5016802;28;20416;-89
2022/08/10 02:28:39;;;;;;;11.50;6.80;;;;;;;17.56;100.00;94929.75;5017028;28;20030;-89
2022/08/10 02:31:15;;;;;;;9.75;6.20;;;;;;;17.72;100.00;94924.94;5001070;28;20026;-89
2022/08/10 02:33:59;;;;;;;;;;;;;;;;;;;;;
2022/08/10 02:37:03;;;;;;;;;;;;;;;;;;;;;
2022/08/10 02:39:37;;;;;;;10.20;5.38;;;;;;;17.86;100.00;94924.06;5016387;28;20037;-90
2022/08/10 02:43:00;;;;;;;;;;;;;;;;;;;;;
2022/08/10 02:45:54;;;;;;;9.38;5.65;;;;;;;17.35;100.00;94908.97;5017384;28;20026;-89
2022/08/10 02:48:23;;;;;;;8.73;4.88;;;;;;;17.21;100.00;94913.50;5016561;28;20058;-89
2022/08/10 02:51:04;;;;;;;9.88;5.43;;;;;;;17.19;100.00;94911.19;5000228;28;20092;-89
2022/08/10 02:53:48;;;;;;;9.45;5.32;;;;;;;17.38;100.00;94902.31;5016265;28;20032;-89
2022/08/10 02:56:25;;;;;;;13.95;4.80;;;;;;;17.51;100.00;94904.16;5016362;28;20194;-89
2022/08/10 02:59:14;;;;;;;6.90;5.10;;;;;;;17.63;100.00;94910.81;4999833;28;20038;-89
2022/08/10 03:02:05;;;;;;;8.93;5.35;;;;;;;17.56;100.00;94905.91;5016946;28;20044;-89
2022/08/10 03:08:00;;;;;;;;;;;;;;;;;;;;;
2022/08/10 03:11:02;;;;;;;;;;;;;;;;;;;;;
2022/08/10 03:13:31;;;;;;;11.10;6.38;;;;;;;17.47;100.00;94907.69;5015826;28;20025;-89
2022/08/10 03:16:00;;;;;;;16.15;7.13;;;;;;;17.27;100.00;94899.09;5016007;28;20120;-88
2022/08/10 03:18:31;;;;;;;9.65;6.25;;;;;;;17.19;100.00;94902.44;5030409;28;20087;-89
2022/08/10 03:20:59;;;;;;;8.15;5.03;;;;;;;17.46;100.00;94898.19;5027240;28;20033;-90
2022/08/10 03:23:25;;;;;;;8.77;5.63;;;;;;;17.47;100.00;94902.41;5015635;28;20324;-90
2022/08/10 03:25:53;;;;;;;7.55;4.57;;;;;;;17.37;100.00;94903.41;5024608;28;20053;-89
2022/08/10 03:28:23;;;;;;;9.60;5.70;;;;;;;17.08;100.00;94900.00;5035661;28;20065;-89
2022/08/10 03:30:50;;;;;;;7.43;5.07;;;;;;;17.16;100.00;94901.19;5036102;28;20024;-89
2022/08/10 03:33:22;;;;;;;6.38;4.80;;;;;;;17.10;100.00;94905.00;5023285;28;20025;-89
2022/08/10 03:35:49;;;;;;;9.88;6.13;;;;;;;17.01;100.00;94904.91;5023917;28;20053;-89
2022/08/10 03:38:14;;;;;;;8.82;5.47;;;;;;;17.32;100.00;94909.59;5022963;28;20033;-89
2022/08/10 03:40:40;;;;;;;7.13;4.93;;;;;;;17.42;100.00;94910.47;5040879;28;20041;-89
2022/08/10 03:43:07;;;;;;;10.55;5.97;;;;;;;17.10;100.00;94912.94;5039464;28;20037;-89
2022/08/10 03:45:36;;;;;;;6.03;4.38;;;;;;;17.42;100.00;94902.50;5039514;28;20454;-89
2022/08/10 03:48:03;;;;;;;9.15;4.90;;;;;;;17.43;100.00;94906.72;5039534;28;20032;-89
2022/08/10 03:50:29;;;;;;;6.13;4.20;;;;;;;17.10;100.00;94911.09;5039433;28;20346;-89
2022/08/10 03:52:55;;;;;;;8.25;4.72;;;;;;;17.02;100.00;94911.75;5038983;28;20100;-89
2022/08/10 03:55:24;;;;;;;7.13;4.93;;;;;;;16.88;100.00;94911.75;5039360;28;20080;-89
2022/08/10 03:57:49;;;;;;;6.55;4.60;;;;;;;17.11;100.00;94911.84;5023160;28;20410;-90
2022/08/10 04:00:38;;;;;;;;;;;;;;;;;;;;;
2022/08/10 04:03:07;;;;;;;6.57;3.90;;;;;;;17.28;100.00;94911.25;5019259;28;20026;-89
2022/08/10 04:05:35;;;;;;;8.85;4.47;;;;;;;17.16;100.00;94916.28;5035601;28;20446;-89
2022/08/10 04:08:04;;;;;;;6.13;4.38;;;;;;;16.99;100.00;94911.53;5003585;28;20033;-89
2022/08/10 04:10:37;;;;;;;7.93;4.63;;;;;;;16.74;100.00;94911.72;5003513;28;20030;-89
2022/08/10 04:13:04;;;;;;;6.33;4.80;;;;;;;16.92;100.00;94914.56;5004006;28;20030;-89
2022/08/10 04:15:30;;;;;;;7.20;4.60;;;;;;;17.10;100.00;94911.09;5035365;28;20030;-89
2022/08/10 04:17:55;;;;;;;5.93;3.70;;;;;;;17.20;100.00;94919.88;5019150;28;20550;-89
2022/08/10 04:20:36;;;;;;;7.38;4.05;;;;;;;17.16;100.00;94925.00;5019662;28;20025;-89
2022/08/10 04:23:05;;;;;;;5.68;4.00;;;;;;;17.34;100.00;94919.88;5019225;28;20022;-89
2022/08/10 04:25:34;;;;;;;8.45;3.92;;;;;;;17.20;100.00;94928.63;5002828;28;20477;-89
2022/08/10 04:28:02;;;;;;;6.82;3.85;;;;;;;17.40;100.00;94926.63;5003453;28;20017;-90
2022/08/10 04:30:35;;;;;;;7.00;3.65;;;;;;;17.55;100.00;94933.50;5003249;28;20026;-89
2022/08/10 04:33:04;;;;;;;5.65;3.80;;;;;;;17.22;100.00;94934.41;5003456;28;20030;-89
2022/08/10 04:35:33;;;;;;;5.80;3.50;;;;;;;17.07;100.00;94930.22;5018982;28;20028;-89
2022/08/10 04:38:03;;;;;;;4.82;3.80;;;;;;;17.28;100.00;94937.75;5018928;28;20029;-90
2022/08/10 04:40:31;;;;;;;5.28;3.38;;;;;;;17.40;100.00;94941.75;5018469;28;20137;-89
2022/08/10 04:43:01;;;;;;;6.63;3.92;;;;;;;17.22;100.00;94938.94;5001816;28;20032;-90
2022/08/10 04:45:31;;;;;;;5.05;3.40;;;;;;;17.01;100.00;94939.31;5018472;28;20404;-89
2022/08/10 04:47:59;;;;;;;6.75;3.90;;;;;;;16.92;100.00;94941.03;5018978;28;20025;-90
2022/08/10 04:50:24;;;;;;;8.23;4.28;;;;;;;16.89;100.00;94936.34;5034592;28;20026;-89
2022/08/10 04:52:51;;;;;;;7.80;4.47;;;;;;;16.85;100.00;94938.78;5034731;28;20439;-90
2022/08/10 04:55:16;;;;;;;6.68;4.18;;;;;;;16.93;100.00;94943.41;5034743;28;20048;-90
2022/08/10 04:57:42;;;;;;;5.78;4.07;;;;;;;16.94;100.00;94949.50;5002064;28;20064;-89
2022/08/10 05:00:08;;;;;;;8.30;4.43;;;;;;;16.98;100.00;94952.31;5019534;28;20037;-88
2022/08/10 05:02:33;;;;;;;6.07;4.40;;;;;;;17.09;100.00;94954.53;5002063;28;20067;-88
2022/08/10 05:04:59;;;;;;;8.93;4.88;;;;;;;17.10;100.00;94957.94;5018426;28;20022;-88
2022/08/10 05:07:27;;;;;;;10.68;4.70;;;;;;;17.27;100.00;94960.00;5002421;28;20022;-88
2022/08/10 05:09:55;;;;;;;9.43;4.57;;;;;;;17.31;100.00;94960.97;5018390;28;20428;-88
2022/08/10 05:12:22;;;;;;;5.82;3.90;;;;;;;17.68;100.00;94958.38;5018616;28;20029;-88
2022/08/10 05:14:51;;;;;;;6.50;3.88;;;;;;;17.93;100.00;94965.00;5018177;28;20068;-88
2022/08/10 05:17:20;;;;;;;5.88;4.10;;;;;;;18.13;100.00;94963.00;5002627;28;20079;-88
2022/08/10 05:19:45;;;;;;;5.85;3.63;;;;;;;18.25;100.00;94959.81;5018535;28;20044;-88
2022/08/10 05:22:13;;;;;;;4.95;3.67;;;;;;;18.41;100.00;94960.22;5001890;28;20121;-89
2022/08/10 05:24:38;;;;;;;5.50;3.63;;;;;;;18.47;100.00;94963.56;5017722;28;20426;-88
2022/08/10 05:27:05;;;;;;;7.25;3.75;;;;;;;18.55;100.00;94962.81;5018093;28;20049;-88
2022/08/10 05:29:31;;;;;;;5.88;4.13;;;;;;;18.58;100.00;94961.44;5017742;28;20030;-87
2022/08/10 05:31:59;;;;;;;7.60;4.75;;;;;;;18.76;100.00;94967.63;5018012;28;20387;-87
2022/08/10 05:34:27;;;;;;;10.68;4.38;;;;;;;18.81;100.00;94959.50;5017636;28;20112;-87
2022/08/10 05:36:54;;;;;;;6.15;4.07;;;;;;;18.94;100.00;94945.38;5033542;28;20026;-87
2022/08/10 05:39:20;;;;;;;4.28;3.35;;;;;;;19.10;100.00;94954.84;5017531;28;20033;-87
2022/08/10 05:41:47;;;;;;;5.38;3.20;;;;;;;19.18;100.00;94957.53;5018042;28;20026;-87
2022/08/10 05:44:16;;;;;;;5.70;3.25;;;;;;;18.95;100.00;94956.78;5001326;28;20065;-87
2022/08/10 05:46:43;;;;;;;5.50;3.40;;;;;;;19.30;100.00;94956.91;5017506;28;20129;-87
2022/08/10 05:49:09;;;;;;;6.07;3.55;;;;;;;19.37;100.00;94961.78;5022244;28;20041;-88
2022/08/10 05:51:35;;;;;;;4.88;2.85;;;;;;;19.15;100.00;94955.47;5018592;28;20478;-87
2022/08/10 05:54:03;;;;;;;5.07;3.20;;;;;;;19.09;100.00;94958.59;5001057;28;20057;-87
2022/08/10 05:56:31;;;;;;;8.07;3.55;;;;;;;19.45;100.00;94958.38;5005461;28;20084;-87
2022/08/10 05:58:56;;;;;;;5.22;3.00;;;;;;;19.72;100.00;94953.88;5037207;28;20080;-88
2022/08/10 06:01:24;;;;;;;5.95;3.63;;;;;;;19.92;100.00;94963.16;5037019;28;20029;-87
2022/08/10 06:03:52;;;;;;;6.68;3.58;;;;;;;19.94;100.00;94954.06;5020666;28;20021;-87
2022/08/10 06:06:57;;;;;;;;;;;;;;;;;;;;;
2022/08/10 06:09:28;;;;;;;5.85;3.50;;;;;;;20.24;100.00;94948.91;5017114;28;20030;-87
2022/08/10 06:12:04;;;;;;;4.03;3.10;;;;;;;20.36;100.00;94957.03;5017515;28;20506;-87
2022/08/10 06:17:15;;;;;;;5.53;3.28;;;;;;;20.60;100.00;94953.88;5017059;28;20072;-86
2022/08/10 06:19:42;;;;;;;8.40;4.28;;;;;;;20.48;100.00;94948.41;5017727;28;20184;-86
2022/08/10 06:22:13;;;;;;;5.45;3.97;;;;;;;20.69;100.00;94959.16;5016622;28;20033;-86
2022/08/10 06:24:42;;;;;;;6.15;3.40;;;;;;;20.77;100.00;94961.00;5017010;28;20072;-86
2022/08/10 06:27:10;;;;;;;6.43;3.28;;;;;;;20.59;100.00;94964.81;5017935;28;20030;-87
2022/08/10 06:29:46;;;;;;;6.68;3.28;;;;;;;20.72;100.00;94963.06;5000325;28;20065;-87
2022/08/10 06:32:11;;;;;;;4.30;3.10;;;;;;;20.79;100.00;94962.56;5001814;28;20368;-87
2022/08/10 06:34:49;;;;;;;;;;;;;;;;;;;;;
2022/08/10 06:37:38;;;;;;;;;;;;;;;;;;;;;
2022/08/10 06:40:14;;;;;;;;;;;;;;;;;;;;;
2022/08/10 06:42:43;;;;;;;4.38;2.83;;;;;;;21.16;100.00;94957.63;5016451;28;20029;-86
2022/08/10 06:45:14;;;;;;;6.47;3.20;;;;;;;20.98;100.00;94963.03;5016964;28;20054;-87
2022/08/10 06:48:03;;;;;;;;;;;;;;;;;;;;;
2022/08/10 06:50:46;;;;;;;;;;;;;;;;;;;;;
2022/08/10 06:53:19;;;;;;;4.07;3.20;;;;;;;21.18;100.00;94952.75;5016032;28;20029;-87
2022/08/10 06:55:49;;;;;;;5.10;3.13;;;;;;;21.18;100.00;94956.22;5000263;28;20033;-87
2022/08/10 06:58:19;;;;;;;4.50;2.75;;;;;;;21.59;100.00;94959.28;5016091;28;20065;-87
2022/08/10 07:00:45;;;;;;;3.88;2.80;;;;;;;22.03;100.00;94959.03;5016201;28;20037;-87
2022/08/10 07:03:11;;;;;;;4.90;3.08;;;;;;;21.94;100.00;94955.63;5016548;28;20428;-86
2022/08/10 07:05:40;;;;;;;3.95;2.70;;;;;;;22.26;100.00;94960.56;5015357;28;20428;-87
2022/08/10 07:08:11;;;;;;;4.35;3.03;;;;;;;22.31;100.00;94955.00;5016009;28;20181;-87
2022/08/10 07:10:37;;;;;;;4.10;2.80;;;;;;;22.41;100.00;94962.63;5016485;28;20061;-87
2022/08/10 07:13:13;;;;;;;;;;;;;;;;;;;;;
2022/08/10 07:15:41;;;;;;;3.58;2.70;;;;;;;22.72;100.00;94966.72;5017115;28;20026;-88
2022/08/10 07:18:13;;;;;;;6.38;2.58;;;;;;;22.87;100.00;94961.88;5030076;28;20041;-86
2022/08/10 07:20:41;;;;;;;3.72;2.72;;;;;;;23.04;100.00;94958.22;5013086;28;20397;-86
2022/08/10 07:23:24;;;;;;;;;;;;;;;;;;;;;
2022/08/10 07:25:50;;;;;;;3.55;2.50;;;;;;;22.93;100.00;94970.44;5031193;28;20443;-87
2022/08/10 07:28:20;;;;;;;4.82;2.35;;;;;;;23.27;100.00;94971.97;5024909;28;20029;-86
2022/08/10 07:30:57;;;;;;;3.40;2.25;;;;;;;23.34;100.00;94970.63;5035280;28;20040;-87
2022/08/10 07:33:26;;;;;;;4.80;2.38;;;;;;;23.32;100.00;94973.63;5019919;28;20411;-87
2022/08/10 07:35:52;;;;;;;4.40;2.80;;;;;;;22.97;100.00;94977.47;5035549;28;20421;-88
2022/08/10 07:39:05;;;;;;;4.13;2.97;;;;;;;22.83;100.00;94964.41;5010266;28;20030;-85
2022/08/10 07:41:47;;;;;;;;;;;;;;;;;;;;;
2022/08/10 07:44:32;;;;;;;;;;;;;;;;;;;;;
2022/08/10 07:47:10;;;;;;;;;;;;;;;;;;;;;
2022/08/10 07:49:56;;;;;;;4.47;2.35;;;;;;;23.67;100.00;94959.78;5015543;28;20026;-87
2022/08/10 07:52:44;;;;;;;3.55;2.28;;;;;;;23.68;100.00;94955.22;5000450;28;20030;-86
2022/08/10 07:55:34;;;;;;;3.53;2.60;;;;;;;23.49;100.00;94956.56;4999215;28;20347;-87
2022/08/10 07:58:43;;;;;;;;;;;;;;;;;;;;;
2022/08/10 08:01:26;;;;;;;;;;;;;;;;;;;;;
2022/08/10 08:03:56;;;;;;;5.65;2.28;;;;;;;23.24;100.00;94963.78;5017966;28;22008;-88
2022/08/10 08:06:22;;;;;;;6.88;2.50;;;;;;;23.16;100.00;94957.44;5033717;28;20069;-87
2022/08/10 08:09:03;;;;;;;;;;;;;;;;;;;;;
2022/08/10 08:11:42;;;;;;;;;;;;;;;;;;;;;
2022/08/10 08:14:24;;;;;;;;;;;;;;;;;;;;;
2022/08/10 08:17:25;;;;;;;;;;;;;;;;;;;;;
2022/08/10 08:20:03;;;;;;;6.20;2.60;;;;;;;23.50;100.00;94949.34;5020525;28;20370;-86
2022/08/10 08:22:40;;;;;;;4.30;2.10;;;;;;;23.86;100.00;94956.53;5018875;28;20032;-86
2022/08/10 08:25:06;;;;;;;3.47;2.22;;;;;;;23.67;100.00;94954.44;5018835;28;20088;-87
2022/08/10 08:27:45;;;;;;;3.95;2.25;;;;;;;24.06;100.00;94959.38;5018905;28;20436;-86
2022/08/10 08:30:29;;;;;;;6.55;2.30;;;;;;;24.39;100.00;94957.59;5018656;28;20088;-86
2022/08/10 08:33:14;;;;;;;2.53;1.80;;;;;;;24.55;100.00;94965.69;5002853;28;20110;-88
2022/08/10 08:36:48;;;;;;;2.83;2.08;;;;;;;24.68;100.00;94961.03;5020057;28;20355;-87
2022/08/10 08:39:21;;;;;;;;;;;;;;;;;;;;;
2022/08/10 08:41:49;;;;;;;3.25;2.00;;;;;;;24.07;96.36;94960.94;5019491;28;20022;-87
2022/08/10 08:44:33;;;;;;;3.08;2.30;;;;;;;24.31;100.00;94958.50;5019275;28;20029;-87
2022/08/10 08:47:02;;;;;;;3.67;2.20;;;;;;;24.57;97.01;94955.41;5002501;28;20052;-88
2022/08/10 08:49:40;;;;;;;3.15;2.05;;;;;;;24.78;94.65;94963.25;5001922;28;20030;-88
2022/08/10 08:55:40;;;;;;;4.07;2.33;;;;;;;24.47;87.54;94951.31;5012180;28;20440;-89
2022/08/10 08:58:34;;;;;;;2.60;1.90;;;;;;;24.60;88.59;94954.69;5019550;28;20120;-86
2022/08/10 09:01:20;;;;;;;3.30;2.20;;;;;;;25.15;95.24;94962.22;5019225;28;20072;-87
2022/08/10 09:04:34;;;;;;;;;;;;;;;;;;;;;
2022/08/10 09:07:32;;;;;;;1.73;1.58;;;;;;;25.00;83.91;94955.72;5019017;28;20014;-88
2022/08/10 09:10:22;;;;;;;5.13;1.92;;;;;;;24.91;77.96;94965.84;5018073;28;20040;-87
2022/08/10 09:12:50;;;;;;;5.25;1.83;;;;;;;25.12;79.52;94950.28;5017556;28;20022;-87
2022/08/10 09:15:45;;;;;;;;;;;;;;;;;;;;;
2022/08/10 09:18:23;;;;;;;7.18;2.45;;;;;;;25.59;79.91;94939.84;5017839;28;20040;-87
2022/08/10 09:21:25;;;;;;;;;;;;;;;;;;;;;
2022/08/10 09:24:00;;;;;;;3.30;2.13;;;;;;;25.50;76.51;94944.66;5018574;28;20017;-89
2022/08/10 09:26:58;;;;;;;2.67;1.90;;;;;;;25.63;80.72;94938.03;5017705;28;20030;-88
2022/08/10 09:29:40;;;;;;;;;;;;;;;;;;;;;
2022/08/10 09:32:47;;;;;;;;;;;;;;;;;;;;;
2022/08/10 09:35:27;;;;;;;;;;;;;;;;;;;;;
2022/08/10 09:38:23;;;;;;;3.05;2.00;;;;;;;25.38;79.63;94940.13;5018542;28;20026;-90
2022/08/10 09:40:59;;;;;;;2.75;1.65;;;;;;;25.62;88.24;94935.69;5002232;28;20042;-89
2022/08/10 09:43:46;;;;;;;3.35;1.70;;;;;;;25.78;76.77;94938.34;5001753;28;20116;-88
2022/08/10 09:46:24;;;;;;;4.05;1.88;;;;;;;25.60;69.32;94940.63;5017414;28;20087;-88
2022/08/10 09:49:26;;;;;;;2.63;1.65;;;;;;;25.73;66.21;94934.03;5017754;28;20041;-89
2022/08/10 09:52:04;;;;;;;2.55;1.67;;;;;;;26.06;70.06;94942.75;5017683;28;20466;-88
2022/08/10 09:54:32;;;;;;;2.80;1.98;;;;;;;25.64;68.28;94938.81;5017297;28;20068;-87
2022/08/10 09:57:31;;;;;;;;;;;;;;;;;;;;;
2022/08/10 10:00:12;;;;;;;3.15;1.80;;;;;;;25.69;69.23;94933.19;5024140;28;20021;-87
2022/08/10 10:02:57;;;;;;;2.70;1.77;;;;;;;25.75;71.69;94941.72;5037811;28;20030;-88
2022/08/10 10:05:45;;;;;;;3.65;2.30;;;;;;;25.91;68.41;94941.66;5037301;28;20025;-87
2022/08/10 10:08:38;;;;;;;3.88;2.05;;;;;;;25.84;71.69;94934.25;5038113;28;20025;-89
2022/08/10 10:11:39;;;;;;;3.08;1.60;;;;;;;26.30;71.40;94939.00;5036882;28;20047;-87
2022/08/10 10:14:24;;;;;;;7.75;1.95;;;;;;;26.35;66.43;94941.41;5037727;28;20431;-89
2022/08/10 10:16:50;;;;;;;2.22;1.92;;;;;;;26.50;60.78;94939.78;5037600;28;20351;-87
2022/08/10 10:19:43;;;;;;;3.95;1.83;;;;;;;25.88;64.93;94931.63;5037663;28;20026;-89
2022/08/10 10:22:11;;;;;;;4.57;2.10;;;;;;;25.88;62.89;94939.69;5037717;28;20044;-86
2022/08/10 10:25:07;;;;;;;3.67;2.00;;;;;;;26.06;68.56;94938.13;5036517;28;20037;-86
2022/08/10 10:28:17;;;;;;;3.25;1.83;;;;;;;26.31;65.80;94937.88;5016620;28;20454;-89
2022/08/10 10:31:27;;;;;;;;;;;;;;;;;;;;;
2022/08/10 10:34:17;;;;;;;;;;;;;;;;;;;;;
2022/08/10 10:36:55;;;;;;;;;;;;;;;;;;;;;
2022/08/10 10:39:22;;;;;;;2.47;1.70;;;;;;;26.45;67.47;94933.91;5016525;28;20025;-89
2022/08/10 10:42:06;;;;;;;3.72;2.58;;;;;;;26.23;67.12;94928.13;4999499;28;20030;-88
2022/08/10 10:44:41;;;;;;;3.17;2.30;;;;;;;26.66;62.36;94930.84;5000406;28;20056;-86
2022/08/10 10:47:06;;;;;;;4.15;2.47;;;;;;;26.39;63.14;94928.81;5016287;28;20412;-86
2022/08/10 10:49:53;;;;;;;6.60;2.33;;;;;;;26.55;61.10;94917.22;5016410;28;20132;-87
2022/08/10 10:52:47;;;;;;;3.05;2.22;;;;;;;26.34;61.87;94925.66;5016467;28;20451;-86
2022/08/10 10:55:22;;;;;;;3.08;1.80;;;;;;;26.61;63.27;94926.53;5017387;28;20107;-88
2022/08/10 10:57:53;;;;;;;3.90;2.00;;;;;;;26.66;63.82;94926.22;5029280;28;20088;-88
2022/08/10 11:00:22;;;;;;;5.93;2.45;;;;;;;26.15;64.00;94915.69;5016249;28;20033;-86
2022/08/10 11:02:53;;;;;;;2.58;1.95;;;;;;;26.73;62.28;94914.06;5024422;28;20021;-89
2022/08/10 11:05:21;;;;;;;2.58;1.73;;;;;;;26.82;61.68;94914.56;5036901;28;20128;-88
2022/08/10 11:08:02;;;;;;;5.75;2.10;;;;;;;27.17;59.31;94913.63;5025747;28;20029;-87
2022/08/10 11:10:46;;;;;;;4.10;2.03;;;;;;;26.98;57.19;94914.47;5031701;28;20033;-88
2022/08/10 11:13:24;;;;;;;2.92;2.15;;;;;;;27.16;56.92;94924.75;5035811;28;20036;-87
2022/08/10 11:15:59;;;;;;;5.72;2.83;;;;;;;26.52;60.68;94909.84;5036076;28;20047;-87
2022/08/10 11:19:01;;;;;;;;;;;;;;;;;;;;;
2022/08/10 11:22:10;;;;;;;;;;;;;;;;;;;;;
2022/08/10 11:25:06;;;;;;;;;;;;;;;;;;;;;
2022/08/10 11:28:19;;;;;;;;;;;;;;;;;;;;;
2022/08/10 11:31:16;;;;;;;3.03;2.20;;;;;;;27.57;54.64;94918.84;5015776;28;20030;-88
2022/08/10 11:34:11;;;;;;;4.28;1.70;;;;;;;26.91;53.19;94917.06;5015821;28;20080;-90
2022/08/10 11:36:52;;;;;;;2.70;1.75;;;;;;;27.21;54.63;94901.00;5015589;28;20022;-86
2022/08/10 11:39:38;;;;;;;3.55;1.75;;;;;;;27.34;56.91;94912.34;4999555;28;20025;-88
2022/08/10 11:46:10;;;;;;;3.92;1.80;;;;;;;27.67;54.17;94891.28;5016927;28;20113;-87
2022/08/10 11:52:03;;;;;;;2.58;1.80;;;;;;;27.56;49.12;94896.53;5016538;28;20385;-87
2022/08/10 11:54:42;;;;;;;2.08;1.75;;;;;;;27.51;51.47;94896.81;5019330;28;20025;-87
2022/08/10 11:57:11;;;;;;;1.63;1.40;;;;;;;27.55;53.19;94897.66;5019930;28;20438;-89
2022/08/10 11:59:56;;;;;;;2.42;1.85;;;;;;;27.34;51.85;94880.06;5020729;28;20088;-89
2022/08/10 12:02:30;;;;;;;2.53;1.90;;;;;;;27.90;53.85;94875.03;5005762;28;20022;-89
2022/08/10 12:05:02;;;;;;;3.28;1.95;;;;;;;27.24;52.75;94883.38;5003560;28;20339;-87
2022/08/10 12:07:31;;;;;;;3.20;1.70;;;;;;;27.74;56.85;94875.22;5019533;28;20028;-88
2022/08/10 12:09:57;;;;;;;3.08;2.00;;;;;;;27.17;50.37;94872.50;5003152;28;20332;-89
2022/08/10 12:12:24;;;;;;;2.45;1.80;;;;;;;27.09;55.37;94875.09;5019273;28;20025;-87
2022/08/10 12:15:36;;;;;;;4.80;1.52;;;;;;;27.53;52.94;94870.34;5002866;28;20036;-87
2022/08/10 12:18:19;;;;;;;3.03;1.65;;;;;;;28.04;51.62;94871.72;5012775;28;20184;-89
2022/08/10 12:20:58;;;;;;;;;;;;;;;;;;;;;
2022/08/10 12:23:30;;;;;;;3.15;1.85;;;;;;;28.42;50.62;94860.97;5019024;28;20052;-87
2022/08/10 12:26:06;;;;;;;2.00;1.50;;;;;;;28.45;50.70;94865.59;5019009;28;20128;-87
2022/08/10 12:28:58;;;;;;;5.28;1.88;;;;;;;28.08;52.26;94861.75;5003075;28;20114;-87
2022/08/10 12:31:56;;;;;;;2.72;1.50;;;;;;;28.16;52.12;94856.47;5019156;28;20030;-90
2022/08/10 12:34:51;;;;;;;8.93;1.60;;;;;;;28.25;51.11;94859.63;5014113;28;20430;-89
2022/08/10 12:37:44;;;;;;;3.25;1.60;;;;;;;27.93;50.74;94855.44;5019804;28;20034;-87
2022/08/10 12:40:13;;;;;;;2.47;1.60;;;;;;;27.52;52.59;94855.31;4999529;28;20034;-89
2022/08/10 12:43:03;;;;;;;4.78;1.48;;;;;;;27.80;54.90;94862.97;5018774;28;20167;-88
2022/08/10 12:45:39;;;;;;;2.83;1.63;;;;;;;27.64;54.28;94846.25;5018566;28;20061;-87
2022/08/10 12:48:11;;;;;;;6.68;1.95;;;;;;;27.91;57.08;94846.19;5018650;28;20134;-90
2022/08/10 12:58:06;;;;;;;8.07;1.70;;;;;;;28.94;49.03;94838.69;5009145;28;20037;-87
2022/08/10 13:00:41;;;;;;;3.00;1.80;;;;;;;28.68;49.74;94818.84;4992539;28;20037;-91
2022/08/10 13:07:31;;;;;;;;;;;;;;;;;;;;;
2022/08/10 13:13:20;;;;;;;3.50;1.48;;;;;;;28.93;46.72;94818.28;5017906;28;20136;-89
2022/08/10 13:18:50;;;;;;;2.75;1.48;;;;;;;28.97;48.38;94824.47;5011826;28;19913;-90
2022/08/10 13:21:35;;;;;;;3.00;1.30;;;;;;;28.49;48.96;94827.91;5018100;28;20465;-88
2022/08/10 13:24:16;;;;;;;3.15;1.83;;;;;;;28.35;49.64;94815.88;5004033;28;20497;-88
2022/08/10 13:26:56;;;;;;;3.47;1.42;;;;;;;29.32;49.74;94816.97;5018933;28;20057;-87
2022/08/10 13:29:23;;;;;;;3.50;1.65;;;;;;;29.28;46.44;94802.69;5017810;28;20076;-86
2022/08/10 13:31:53;;;;;;;2.92;1.80;;;;;;;29.54;47.89;94803.56;5017504;28;20033;-89
2022/08/10 13:34:35;;;;;;;5.50;1.50;;;;;;;28.82;48.89;94804.69;5017596;28;20431;-87
2022/08/10 13:37:12;;;;;;;5.05;1.90;;;;;;;29.02;47.44;94796.38;5017489;28;20490;-88
2022/08/10 13:40:06;;;;;;;2.67;1.50;;;;;;;29.21;47.09;94795.31;5017727;28;20080;-87
2022/08/10 13:43:03;;;;;;;1.63;1.42;;;;;;;30.14;45.67;94798.78;5017805;28;20033;-88
2022/08/10 13:45:39;;;;;;;;;;;;;;;;;;;;;
2022/08/10 13:48:24;;;;;;;1.85;1.38;;;;;;;28.95;47.58;94782.81;5017450;28;20017;-89